Duckwater, Nevada Weather observations

Data are for 10 minute period ending at time listed.
 Day   Time   Solar   Ave.   Ave.  Ave.  Vector  Max.   Baro.   Total    
  of    of     Rad.   Air    Rel.  Wind   Wind   Wind  Press.  Precip.   
Year   Day            Temp.  Hum.  Speed  Dir.   Gust                    
2016   (PST)   w/m2    F      %     mph   deg.    mph    mb.     in.    
-----------------------------------------------------------------------
 211    2:10      0   72.7    30    2.0    77     5.1   835.7   0.00  
 211    2:20      0   73.6    28    1.8   106     4.7   835.7   0.00  
 211    2:30      0   73.6    27    3.1    71     5.8   835.8   0.00  
 211    2:40      0   71.0    32    2.1   314     4.1   835.8   0.00  
 211    2:50      0   67.7    40    3.1   322     4.5   835.7   0.00  
 211    3:00      0   68.3    37    2.4   346     3.1   835.6   0.00  
 211    3:10      0   69.5    36    1.8   335     5.3   835.6   0.00  
 211    3:20      0   69.0    35    3.7    13     5.5   835.5   0.00  
 211    3:30      0   70.9    31    3.5    45     5.3   835.5   0.00  
 211    3:40      0   72.0    30    4.3    30     5.9   835.5   0.00  
 211    3:50      0   72.7    30    4.7    16     8.0   835.4   0.00  
 211    4:00      0   72.4    30    1.8    29     4.1   835.5   0.00  
 211    4:10      0   68.8    37    3.0   265     4.3   835.6   0.00  
 211    4:20      0   66.7    41    1.4   277     5.2   835.7   0.00  
 211    4:30      0   66.5    40    2.3    12     4.3   835.7   0.00  
 211    4:40      1   69.5    32    3.6    33     5.6   835.7   0.00  
 211    4:50      4   70.8    31    3.6     2     6.0   835.8   0.00  
 211    5:00      8   70.1    33    2.3   334     3.7   835.8   0.00  
 211    5:10     16   69.5    34    2.6   346     6.3   835.8   0.00  
 211    5:20     36   71.8    31    4.4     4     7.3   835.8   0.00  
 211    5:30     72   72.9    30    3.2    23     6.6   835.8   0.00  
 211    5:40    115   74.4    30    0.6   207     2.5   835.9   0.00  
 211    5:50    139   73.3    34    0.2   225     0.9   836.0   0.00  
 211    6:00    180   75.5    30    1.0   200     1.8   836.1   0.00  
 211    6:10    154   77.6    30    0.7   162     1.8   836.1   0.00  
 211    6:20    162   77.1    31    1.1   168     2.2   836.1   0.00  
 211    6:30    232   76.2    33    0.4   169     2.0   836.1   0.00  
 211    6:40    284   76.5    36    2.7   273     5.0   836.1   0.00  
 211    6:50    330   77.6    34    2.0   294     3.2   836.2   0.00  
 211    7:00    370   79.5    30    2.8   301     4.2   836.3   0.00  
 211    7:10    410   80.6    30    2.5   325     3.7   836.3   0.00  
 211    7:20    468   83.6    24    1.5   328     3.1   836.3   0.00  
 211    7:30    514   87.4    20    1.2    73     5.0   836.3   0.00  
 211    7:40    557   87.9    19    3.0   108     5.5   836.3   0.00  
 211    7:50    580   89.6    18    4.4   153     7.2   836.3   0.00  
 211    8:00    601   90.3    17    4.0   154     8.3   836.2   0.00  
 211    8:10    634   90.8    17    3.4   141     7.0   836.2   0.00  
 211    8:20    607   90.4    16    4.3   166     7.7   836.1   0.00  
 211    8:30    566   91.0    16    4.1   138     8.1   836.0   0.00  
 211    8:40    626   90.6    17    5.9   155     9.8   835.9   0.00  
 211    8:50    709   90.8    16    7.0   174    11.2   835.9   0.00  
 211    9:00    743   91.4    16    5.8   160    11.2   835.9   0.00  
 211    9:10    791   91.7    16    4.4   179     9.3   835.9   0.00  
 211    9:20    852   92.1    16    5.2   195    12.1   835.9   0.00  
 211    9:30    786   91.8    16    5.1   200     8.6   835.8   0.00  
 211    9:40    764   92.2    15    5.0   193    11.7   835.8   0.00  
 211    9:50    856   92.6    15    4.8   197     9.1   835.8   0.00  
 211   10:00    878   92.7    15    4.4   217    10.4   835.8   0.00  
 211   10:10    887   93.6    14    5.3   157    10.0   835.7   0.00  
 211   10:20    893   95.1    14    4.7   153    10.7   835.6   0.00  
 211   10:30    909   95.2    14    5.9   174    12.2   835.5   0.00  
 211   10:40    921   95.5    14    5.8   169    10.4   835.3   0.00  
 211   10:50    932   96.0    14    7.2   177    13.1   835.2   0.00  
 211   11:00    944   95.5    14    5.2   155    12.1   835.1   0.00  
 211   11:10    959   96.1    14    6.0   167    13.2   835.0   0.00  
 211   11:20    978   96.8    13    6.1   168    11.1   834.9   0.00  
 211   11:30   1015   96.1    13    7.8   192    14.0   834.7   0.00  
 211   11:40   1092   98.2    13    6.6   149    13.0   834.6   0.00  
 211   11:50    571   97.6    12    5.4   155    10.7   834.5   0.00  
 211   12:00    369   95.1    13    6.9   186    14.3   834.3   0.00  
 211   12:10    344   94.8    13    6.8   177    11.3   834.2   0.00  
 211   12:20    239   94.4    14    8.9   191    13.6   834.2   0.00  
 211   12:30    215   88.1    25    9.8   222    21.5   834.5   0.00  
 211   12:40    200   88.8    20    3.4   122     9.3   834.3   0.00  
 211   12:50    169   90.6    17    4.1    68     8.0   834.4   0.00  
 211   13:00    155   87.5    22   10.7   317    21.3   834.5   0.00  
 211   13:10    157   83.9    25   14.6   312    27.5   834.5   0.00  
 211   13:20    178   83.6    24   11.4   322    22.5   834.5   0.00  
 211   13:30    204   85.4    21   14.4   319    24.3   834.5   0.00  
 211   13:40    212   86.7    17   12.7   342    17.2   834.4   0.00  
 211   13:50    225   88.3    15    9.2     9    17.4   834.1   0.00  
 211   14:00    400   90.2    14    7.4    28    14.5   833.9   0.00  
 211   14:10    689   92.8    13    5.0    44     9.9   833.9   0.00  
 211   14:20    899   95.0    12    4.7    70    10.7   833.8   0.00  
 211   14:30   1044   96.8    12    4.4    55    10.1   833.7   0.00  
 211   14:40    940   96.9    12    5.8   164    11.8   833.6   0.00  
 211   14:50    812   98.2    12   10.1   171    17.9   833.6   0.00  
 211   15:00    849   98.9    12   10.2   162    18.5   833.5   0.00  
 211   15:10    643   97.8    12    9.5   171    14.9   833.4   0.00  
 211   15:20    668   96.6    12    7.6   188    11.4   833.2   0.00  
 211   15:30    644   97.6    12    7.5   178    12.1   833.2   0.00  
 211   15:40    403   97.2    12    5.2   172    10.4   833.2   0.00  
 211   15:50    202   94.5    12    4.0   196    10.8   833.2   0.00  
 211   16:00    150   93.8    13    1.0   291     3.4   833.3   0.00  
 211   16:10    999  999.0   999  999.0   999   999.0   999.0  999.00  
 211   16:20    223   90.7    16    7.5   348    12.6   833.4   0.00  
 211   16:30    134   91.0    15    4.6   323    11.5   833.6   0.00  
 211   16:40     74   88.9    18    8.9   319    17.3   833.9   0.00  
 211   16:50     90   87.7    18    7.2   328    15.9   834.0   0.00  
 211   17:00     76   87.6    18    5.0   281    10.8   834.0   0.00  
 211   17:10     45   88.4    17    7.8   175    14.0   834.0   0.00  
 211   17:20     46   88.6    17    9.6   164    15.0   834.0   0.00  
 211   17:30     38   88.4    17    8.8   150    16.4   834.0   0.00  
 211   17:40     40   87.2    19   14.1   148    19.6   834.0   0.00  
 211   17:50     55   86.5    20   13.8   144    21.3   833.9   0.00  
 211   18:00     58   85.3    22   13.1   163    20.9   833.8   0.00  
 211   18:10     43   84.4    22   12.5   176    19.7   834.0   0.00  
 211   18:20     25   83.5    24   11.7   180    18.9   834.3   0.00  
 211   18:30     18   82.5    25   11.3   180    16.9   834.4   0.00  
 211   18:40      9   81.6    26    9.2   193    14.0   834.4   0.00  
 211   18:50      6   81.0    26    9.8   195    15.1   834.4   0.00  
 211   19:00      2   80.5    26    7.3   198    11.5   834.5   0.00  
 211   19:10      0   79.7    28    5.3   187     8.8   834.6   0.00  
 211   19:20      0   79.2    28    4.7   172     8.4   834.7   0.00  
 211   19:30      0   79.5    28    5.1   140     9.0   834.8   0.00  
 211   19:40      0   80.8    27    7.4   180    12.6   834.8   0.00  
 211   19:50      0   79.7    28    4.1   150     6.9   834.9   0.00  
 211   20:00      0   78.6    29    2.8   179     4.5   834.9   0.00  
 211   20:10      0   77.9    30    3.2   208     5.8   835.0   0.00  
 211   20:20      0   78.2    29    3.3   148     6.3   835.0   0.00  
 211   20:30      0   78.0    29    1.9   124     3.1   835.2   0.00  
 211   20:40      0   78.0    29    2.4    80     3.4   835.2   0.00  
 211   20:50      0   78.3    28    2.6   111     4.4   835.3   0.00  
 211   21:00      0   78.2    29    2.2   171     4.3   835.4   0.00  
 211   21:10      0   78.1    28    4.3   177    10.9   835.5   0.00  
 211   21:20      0   80.1    25    1.7   138     4.2   835.5   0.00  
 211   21:30      0   80.5    25    2.5   150     7.2   835.4   0.00  
 211   21:40      0   80.2    25    4.2   165     7.8   835.2   0.00  
 211   21:50      0   79.4    26    2.8   201     6.4   835.2   0.00  
 211   22:00      0   76.9    29    2.9   264     4.8   835.2   0.00  
 211   22:10      0   76.9    28    1.6   232     4.5   835.1   0.00  
 211   22:20      0   76.5    29    4.5   138     6.1   835.1   0.00  
 211   22:30      0   76.4    30    3.1   113     5.1   835.0   0.00  
 211   22:40      0   75.7    30    2.3   109     5.1   835.0   0.00  
 211   22:50      0   75.0    31    1.2    77     3.4   835.0   0.00  
 211   23:00      0   74.3    32    1.1    96     4.9   834.9   0.00  
 211   23:10      0   73.2    34    1.7   313     5.3   834.8   0.00  
 211   23:20      0   70.1    38    2.8   318     5.2   834.7   0.00  
 211   23:30      0   70.6    36    4.0    22     7.5   834.7   0.00  
 211   23:40      0   69.5    37    3.9   348     5.8   834.7   0.00  
 211   23:50      0   69.1    38    2.6   349     5.1   834.6   0.00  
 212    0:00      0   68.7    38    2.7   351     3.8   834.5   0.00  
 212    0:10      0   68.4    38    2.3    11     4.5   834.5   0.00  
 212    0:20      0   69.0    38    3.6    17     6.0   834.5   0.00  
 212    0:30      0   69.2    37    4.1    14     7.0   834.4   0.00  
 212    0:40      0   68.8    38    2.5   352     5.8   834.3   0.00  
 212    0:50      0   67.3    40    0.2   335     1.1   834.1   0.00  
 212    1:00      0   65.5    45    0.5   318     2.7   834.1   0.00  
 212    1:10      0   61.8    52    2.4   276     3.6   834.1   0.00  
 212    1:20      0   61.5    52    0.7   300     3.3   834.1   0.00  
 212    1:30      0   63.9    46    0.5    20     2.6   834.0   0.00  
 212    1:40      0   65.4    44    1.9    27     4.5   833.8   0.00  
 212    1:50      0   67.1    42    3.1   349     4.2   833.7   0.00  
 212    2:00      0   64.5    46    4.1   343     7.5   833.7   0.00  

Return to Duckwater graphs page.


Western Regional Climate Center,wrcc@dri.edu